createdAt,value
2018-09-09T00:00:28.252Z,10.30
2018-09-09T00:02:56.435Z,10.30
2018-09-09T00:05:24.655Z,10.30
2018-09-09T00:07:52.852Z,10.20
2018-09-09T00:10:21.044Z,10.20
2018-09-09T00:12:49.230Z,10.20
2018-09-09T00:15:17.452Z,10.20
2018-09-09T00:17:45.647Z,10.20
2018-09-09T00:20:13.853Z,10.20
2018-09-09T00:22:42.062Z,10.20
2018-09-09T00:25:10.267Z,10.20
2018-09-09T00:27:38.465Z,10.20
2018-09-09T00:30:06.948Z,10.20
2018-09-09T00:32:35.142Z,10.20
2018-09-09T00:35:03.344Z,10.10
2018-09-09T00:37:31.612Z,10.10
2018-09-09T00:39:59.801Z,10.10
2018-09-09T00:42:28.041Z,10.10
2018-09-09T00:44:56.251Z,10.10
2018-09-09T00:47:24.427Z,10.10
2018-09-09T00:49:57.957Z,10.10
2018-09-09T00:52:31.569Z,10.00
2018-09-09T00:54:59.762Z,10.00
2018-09-09T00:57:27.947Z,10.00
2018-09-09T00:59:56.145Z,10.00
2018-09-09T01:02:24.316Z,10.00
2018-09-09T01:04:52.677Z,9.90
2018-09-09T01:07:20.842Z,9.90
2018-09-09T01:09:49.069Z,9.90
2018-09-09T01:12:17.256Z,9.90
2018-09-09T01:14:45.595Z,9.90
2018-09-09T01:17:13.823Z,9.90
2018-09-09T01:19:42.448Z,9.80
2018-09-09T01:22:10.699Z,9.80
2018-09-09T01:24:38.897Z,9.80
2018-09-09T01:27:07.112Z,9.80
2018-09-09T01:29:35.363Z,9.80
2018-09-09T01:32:03.548Z,9.80
2018-09-09T01:34:31.778Z,9.70
2018-09-09T01:37:00.055Z,9.70
2018-09-09T01:39:28.232Z,9.70
2018-09-09T01:41:56.461Z,9.70
2018-09-09T01:44:24.665Z,9.70
2018-09-09T01:46:52.896Z,9.60
2018-09-09T01:49:21.113Z,9.60
2018-09-09T01:51:49.351Z,9.60
2018-09-09T01:54:17.670Z,9.60
2018-09-09T01:56:45.868Z,9.50
2018-09-09T01:59:14.036Z,9.50
2018-09-09T02:01:42.267Z,9.50
2018-09-09T02:04:10.482Z,9.40
2018-09-09T02:06:38.683Z,9.40
2018-09-09T02:09:07.006Z,9.40
2018-09-09T02:11:35.188Z,9.40
2018-09-09T02:14:03.417Z,9.40
2018-09-09T02:16:31.598Z,9.30
2018-09-09T02:18:59.861Z,9.30
2018-09-09T02:21:28.038Z,9.30
2018-09-09T02:23:56.299Z,9.30
2018-09-09T02:26:24.467Z,9.30
2018-09-09T02:28:52.658Z,9.20
2018-09-09T02:31:20.970Z,9.30
2018-09-09T02:33:49.168Z,9.20
2018-09-09T02:36:17.360Z,9.20
2018-09-09T02:38:45.543Z,9.20
2018-09-09T02:41:13.808Z,9.20
2018-09-09T02:43:41.976Z,9.20
2018-09-09T02:46:10.160Z,9.20
2018-09-09T02:48:38.351Z,9.20
2018-09-09T02:51:06.574Z,9.20
2018-09-09T02:53:34.784Z,9.10
2018-09-09T02:56:07.227Z,9.10
2018-09-09T02:58:35.435Z,9.10
2018-09-09T03:01:03.620Z,9.10
2018-09-09T03:03:31.832Z,9.00
2018-09-09T03:06:00.088Z,9.00
2018-09-09T03:08:28.347Z,9.00
2018-09-09T03:11:01.903Z,9.00
2018-09-09T03:13:30.136Z,9.00
2018-09-09T03:15:58.371Z,8.90
2018-09-09T03:18:26.559Z,8.90
2018-09-09T03:20:54.816Z,8.90
2018-09-09T03:23:23.286Z,8.90
2018-09-09T03:25:51.489Z,8.80
2018-09-09T03:28:19.704Z,8.80
2018-09-09T03:30:47.860Z,8.80
2018-09-09T03:33:16.053Z,8.80
2018-09-09T03:35:44.325Z,8.80
2018-09-09T03:38:12.555Z,8.70
2018-09-09T03:40:40.749Z,8.70
2018-09-09T03:43:08.977Z,8.70
2018-09-09T03:45:37.151Z,8.70
2018-09-09T03:48:05.416Z,8.70
2018-09-09T03:50:33.672Z,8.70
2018-09-09T03:53:02.049Z,8.60
2018-09-09T03:55:30.626Z,8.60
2018-09-09T03:57:58.899Z,8.60
2018-09-09T04:00:27.074Z,8.60
2018-09-09T04:02:55.276Z,8.60
2018-09-09T04:05:23.485Z,8.60
2018-09-09T04:07:51.968Z,8.60
2018-09-09T04:10:20.250Z,8.60
2018-09-09T04:12:48.489Z,8.60
2018-09-09T04:15:16.704Z,8.60
2018-09-09T04:17:44.900Z,8.60
2018-09-09T04:20:13.087Z,8.70
2018-09-09T04:22:41.313Z,8.70
2018-09-09T04:25:09.508Z,8.70
2018-09-09T04:27:37.697Z,8.70
2018-09-09T04:30:06.031Z,8.70
2018-09-09T04:32:34.299Z,8.60
2018-09-09T04:35:02.539Z,8.60
2018-09-09T04:37:30.779Z,8.60
2018-09-09T04:39:58.995Z,8.60
2018-09-09T04:42:27.204Z,8.50
2018-09-09T04:44:55.399Z,8.50
2018-09-09T04:47:23.587Z,8.50
2018-09-09T04:49:51.879Z,8.50
2018-09-09T04:52:20.274Z,8.50
2018-09-09T04:54:48.527Z,8.50
2018-09-09T04:57:16.729Z,8.50
2018-09-09T04:59:44.992Z,8.50
2018-09-09T05:02:13.227Z,8.50
2018-09-09T05:04:41.919Z,8.50
2018-09-09T05:07:10.349Z,8.60
2018-09-09T05:09:39.029Z,8.50
2018-09-09T05:12:07.253Z,8.50
2018-09-09T05:14:35.552Z,8.50
2018-09-09T05:17:03.759Z,8.50
2018-09-09T05:19:31.996Z,8.60
2018-09-09T05:22:00.324Z,8.60
2018-09-09T05:24:28.540Z,8.70
2018-09-09T05:26:56.717Z,8.80
2018-09-09T05:29:24.979Z,9.00
2018-09-09T05:34:27.873Z,9.20
2018-09-09T05:36:56.046Z,9.30
2018-09-09T05:39:24.284Z,9.50
2018-09-09T05:41:52.486Z,9.60
2018-09-09T05:44:20.742Z,9.80
2018-09-09T05:46:48.891Z,9.90
2018-09-09T05:49:17.024Z,10.10
2018-09-09T05:51:45.214Z,10.20
2018-09-09T05:54:13.406Z,10.40
2018-09-09T05:56:41.729Z,10.60
2018-09-09T05:59:09.906Z,10.80
2018-09-09T06:01:38.172Z,10.90
2018-09-09T06:04:06.317Z,11.10
2018-09-09T06:06:35.549Z,11.10
2018-09-09T06:09:04.955Z,11.20
2018-09-09T06:11:33.208Z,11.40
2018-09-09T06:14:01.375Z,11.50
2018-09-09T06:16:29.534Z,11.50
2018-09-09T06:18:57.682Z,11.50
2018-09-09T06:21:25.895Z,11.50
2018-09-09T06:23:54.059Z,11.40
2018-09-09T06:26:22.314Z,11.40
2018-09-09T06:28:50.486Z,11.40
2018-09-09T06:31:19.243Z,11.40
2018-09-09T06:33:47.485Z,11.40
2018-09-09T06:36:15.693Z,11.40
2018-09-09T06:38:43.879Z,11.40
2018-09-09T06:41:18.382Z,11.40
2018-09-09T06:43:47.641Z,11.50
2018-09-09T06:46:15.858Z,11.60
2018-09-09T06:48:44.119Z,11.60
2018-09-09T06:51:12.433Z,11.70
2018-09-09T06:53:41.530Z,11.80
2018-09-09T06:56:09.898Z,11.90
2018-09-09T06:58:38.114Z,12.00
2018-09-09T07:01:06.341Z,12.20
2018-09-09T07:03:34.552Z,12.30
2018-09-09T07:06:02.697Z,12.40
2018-09-09T07:08:30.889Z,12.50
2018-09-09T07:10:59.150Z,12.60
2018-09-09T07:13:27.491Z,12.70
2018-09-09T07:15:55.731Z,12.90
2018-09-09T07:18:23.900Z,13.20
2018-09-09T07:20:52.074Z,13.50
2018-09-09T07:23:20.315Z,13.90
2018-09-09T07:25:48.545Z,14.20
2018-09-09T07:28:16.770Z,14.50
2018-09-09T07:30:44.933Z,14.90
2018-09-09T07:33:13.093Z,15.20
2018-09-09T07:35:41.327Z,15.60
2018-09-09T07:38:09.629Z,16.00
2018-09-09T07:40:37.810Z,16.20
2018-09-09T07:43:06.121Z,16.30
2018-09-09T07:45:34.298Z,16.30
2018-09-09T07:48:02.620Z,16.30
2018-09-09T07:50:30.796Z,16.40
2018-09-09T07:52:59.022Z,16.60
2018-09-09T07:55:27.256Z,16.70
2018-09-09T07:57:55.390Z,16.60
2018-09-09T08:00:24.179Z,16.70
2018-09-09T08:02:52.334Z,16.70
2018-09-09T08:05:20.882Z,16.70
2018-09-09T08:07:49.187Z,16.70
2018-09-09T08:10:17.482Z,17.00
2018-09-09T08:12:46.702Z,17.30
2018-09-09T08:15:14.990Z,17.60
2018-09-09T08:17:43.152Z,18.00
2018-09-09T08:20:11.354Z,18.40
2018-09-09T08:22:39.571Z,18.70
2018-09-09T08:25:07.903Z,18.90
2018-09-09T08:27:36.805Z,19.10
2018-09-09T08:30:05.543Z,19.40
2018-09-09T08:32:34.755Z,19.70
2018-09-09T08:35:03.615Z,19.80
2018-09-09T08:37:32.391Z,19.60
2018-09-09T08:40:00.943Z,19.20
2018-09-09T08:42:29.181Z,19.10
2018-09-09T08:44:57.398Z,19.10
2018-09-09T08:47:26.360Z,19.20
2018-09-09T08:49:54.561Z,19.50
2018-09-09T08:52:22.703Z,20.10
2018-09-09T08:54:50.851Z,20.50
2018-09-09T08:57:19.082Z,21.00
2018-09-09T08:59:47.241Z,21.40
2018-09-09T09:02:15.510Z,21.70
2018-09-09T09:04:43.657Z,22.00
2018-09-09T09:07:11.804Z,22.20
2018-09-09T09:09:39.991Z,22.40
2018-09-09T09:12:10.106Z,22.70
2018-09-09T09:14:38.945Z,23.00
2018-09-09T09:17:07.294Z,23.30
2018-09-09T09:19:38.427Z,23.50
2018-09-09T09:22:07.138Z,23.60
2018-09-09T09:24:35.309Z,23.50
2018-09-09T09:27:03.566Z,23.50
2018-09-09T09:29:37.299Z,23.50
2018-09-09T09:32:06.530Z,23.90
2018-09-09T09:34:34.787Z,24.20
2018-09-09T09:37:02.984Z,24.40
2018-09-09T09:39:31.118Z,24.80
2018-09-09T09:41:59.576Z,25.20
2018-09-09T09:44:27.785Z,25.50
2018-09-09T09:46:56.360Z,25.80
2018-09-09T09:49:25.558Z,26.10
2018-09-09T09:51:53.725Z,26.50
2018-09-09T09:54:21.893Z,26.70
2018-09-09T09:56:50.044Z,26.70
2018-09-09T09:59:18.201Z,26.80
2018-09-09T10:01:46.365Z,27.10
2018-09-09T10:04:14.528Z,27.30
2018-09-09T10:06:42.674Z,27.60
2018-09-09T10:09:10.871Z,27.60
2018-09-09T10:11:39.084Z,27.50
2018-09-09T10:14:07.211Z,27.30
2018-09-09T10:16:35.464Z,27.40
2018-09-09T10:19:03.622Z,27.60
2018-09-09T10:21:32.061Z,27.80
2018-09-09T10:24:00.180Z,28.20
2018-09-09T10:26:28.302Z,28.60
2018-09-09T10:28:56.827Z,28.80
2018-09-09T10:31:24.982Z,28.50
2018-09-09T10:33:53.089Z,28.00
2018-09-09T10:36:21.558Z,27.50
2018-09-09T10:38:49.742Z,27.50
2018-09-09T10:41:17.893Z,27.50
2018-09-09T10:43:46.094Z,27.70
2018-09-09T10:46:14.327Z,28.10
2018-09-09T10:48:42.417Z,28.60
2018-09-09T10:51:10.784Z,29.00
2018-09-09T10:53:38.929Z,28.90
2018-09-09T10:56:07.130Z,29.00
2018-09-09T10:58:35.302Z,29.40
2018-09-09T11:01:03.451Z,29.70
2018-09-09T11:03:31.742Z,29.90
2018-09-09T11:05:59.962Z,30.00
2018-09-09T11:08:28.118Z,30.20
2018-09-09T11:10:56.264Z,29.80
2018-09-09T11:13:24.414Z,29.70
2018-09-09T11:15:52.971Z,29.90
2018-09-09T11:18:21.138Z,30.10
2018-09-09T11:20:49.277Z,30.40
2018-09-09T11:23:17.474Z,30.80
2018-09-09T11:25:45.666Z,30.70
2018-09-09T11:28:13.854Z,30.20
2018-09-09T11:30:42.241Z,29.90
2018-09-09T11:33:10.526Z,30.20
2018-09-09T11:35:38.697Z,30.40
2018-09-09T11:38:06.894Z,30.00
2018-09-09T11:40:35.146Z,29.50
2018-09-09T11:43:03.290Z,28.80
2018-09-09T11:45:31.520Z,28.10
2018-09-09T11:48:00.605Z,27.30
2018-09-09T11:50:28.813Z,26.80
2018-09-09T11:52:57.139Z,26.70
2018-09-09T11:55:25.734Z,26.80
2018-09-09T11:57:54.292Z,27.00
2018-09-09T12:00:22.930Z,27.60
2018-09-09T12:02:51.201Z,28.20
2018-09-09T12:05:19.473Z,28.70
2018-09-09T12:07:47.800Z,29.10
2018-09-09T12:10:16.281Z,29.30
2018-09-09T12:12:44.475Z,29.60
2018-09-09T12:15:12.784Z,30.10
2018-09-09T12:17:40.986Z,30.50
2018-09-09T12:20:09.357Z,30.70
2018-09-09T12:22:37.632Z,31.10
2018-09-09T12:25:05.946Z,31.20
2018-09-09T12:27:34.195Z,31.50
2018-09-09T12:30:03.264Z,31.60
2018-09-09T12:32:31.834Z,31.60
2018-09-09T12:34:59.970Z,31.40
2018-09-09T12:37:28.158Z,31.40
2018-09-09T12:39:56.350Z,31.10
2018-09-09T12:42:25.222Z,31.00
2018-09-09T12:44:59.491Z,31.00
2018-09-09T12:47:33.652Z,31.00
2018-09-09T12:50:02.526Z,30.90
2018-09-09T12:52:31.258Z,30.80
2018-09-09T12:55:00.206Z,30.70
2018-09-09T12:57:29.198Z,30.80
2018-09-09T12:59:58.314Z,30.90
2018-09-09T13:02:27.478Z,30.80
2018-09-09T13:04:56.415Z,30.70
2018-09-09T13:07:24.710Z,30.60
2018-09-09T13:09:52.847Z,30.80
2018-09-09T13:12:21.025Z,30.90
2018-09-09T13:14:49.352Z,31.10
2018-09-09T13:17:18.016Z,31.40
2018-09-09T13:19:46.447Z,31.20
2018-09-09T13:22:14.613Z,31.30
2018-09-09T13:24:43.169Z,31.30
2018-09-09T13:27:11.826Z,31.30
2018-09-09T13:29:40.036Z,31.10
2018-09-09T13:32:08.379Z,30.90
2018-09-09T13:34:36.583Z,30.70
2018-09-09T13:37:05.048Z,30.50
2018-09-09T13:39:33.273Z,30.20
2018-09-09T13:42:01.476Z,30.20
2018-09-09T13:44:29.663Z,30.10
2018-09-09T13:46:57.949Z,30.00
2018-09-09T13:49:26.171Z,30.00
2018-09-09T13:51:54.369Z,29.90
2018-09-09T13:54:22.656Z,29.90
2018-09-09T13:56:50.850Z,30.00
2018-09-09T13:59:19.089Z,30.10
2018-09-09T14:01:47.280Z,30.50
2018-09-09T14:04:15.489Z,30.70
2018-09-09T14:06:43.774Z,31.10
2018-09-09T14:09:11.997Z,31.30
2018-09-09T14:11:40.524Z,31.60
2018-09-09T14:14:09.067Z,31.80
2018-09-09T14:16:37.380Z,32.10
2018-09-09T14:19:06.838Z,32.20
2018-09-09T14:21:35.223Z,32.10
2018-09-09T14:24:03.532Z,32.10
2018-09-09T14:26:31.832Z,32.30
2018-09-09T14:29:00.351Z,32.50
2018-09-09T14:31:28.660Z,32.60
2018-09-09T14:33:57.031Z,32.70
2018-09-09T14:36:25.731Z,32.50
2018-09-09T14:38:53.972Z,32.50
2018-09-09T14:41:22.219Z,32.50
2018-09-09T14:43:50.475Z,32.90
2018-09-09T14:46:18.681Z,33.10
2018-09-09T14:48:46.884Z,32.90
2018-09-09T14:51:15.081Z,32.90
2018-09-09T14:53:43.293Z,33.00
2018-09-09T14:56:11.570Z,33.10
2018-09-09T14:58:39.772Z,33.00
2018-09-09T15:01:08.087Z,32.90
2018-09-09T15:03:36.348Z,32.80
2018-09-09T15:06:04.559Z,33.00
2018-09-09T15:08:32.759Z,33.00
2018-09-09T15:11:00.984Z,32.80
2018-09-09T15:13:29.241Z,32.30
2018-09-09T15:15:57.556Z,31.70
2018-09-09T15:18:25.784Z,30.90
2018-09-09T15:20:54.048Z,30.10
2018-09-09T15:23:22.230Z,29.40
2018-09-09T15:25:50.680Z,28.70
2018-09-09T15:28:18.989Z,28.00
2018-09-09T15:30:47.237Z,27.70
2018-09-09T15:33:15.433Z,27.40
2018-09-09T15:35:43.807Z,27.20
2018-09-09T15:38:12.124Z,26.90
2018-09-09T15:40:40.339Z,26.80
2018-09-09T15:43:08.811Z,26.70
2018-09-09T15:45:37.549Z,26.70
2018-09-09T15:48:05.779Z,26.60
2018-09-09T15:50:33.980Z,26.50
2018-09-09T15:53:02.259Z,26.30
2018-09-09T15:55:30.733Z,26.10
2018-09-09T15:57:59.018Z,26.00
2018-09-09T16:00:27.248Z,25.80
2018-09-09T16:02:55.387Z,25.60
2018-09-09T16:05:23.636Z,25.50
2018-09-09T16:07:51.848Z,25.30
2018-09-09T16:10:20.056Z,25.10
2018-09-09T16:12:48.254Z,24.80
2018-09-09T16:15:16.427Z,24.60
2018-09-09T16:17:44.606Z,24.30
2018-09-09T16:20:12.919Z,24.20
2018-09-09T16:22:41.163Z,24.00
2018-09-09T16:25:09.379Z,23.80
2018-09-09T16:27:37.546Z,23.60
2018-09-09T16:30:07.087Z,23.50
2018-09-09T16:32:35.321Z,23.40
2018-09-09T16:35:03.603Z,23.30
2018-09-09T16:37:31.891Z,23.10
2018-09-09T16:40:00.156Z,23.00
2018-09-09T16:42:28.391Z,22.80
2018-09-09T16:44:56.742Z,22.60
2018-09-09T16:47:24.964Z,22.50
2018-09-09T16:49:53.172Z,22.30
2018-09-09T16:52:21.506Z,22.10
2018-09-09T16:54:49.898Z,22.00
2018-09-09T16:57:18.085Z,21.90
2018-09-09T16:59:46.315Z,21.80
2018-09-09T17:02:14.556Z,21.60
2018-09-09T17:04:43.275Z,21.60
2018-09-09T17:07:12.848Z,21.50
2018-09-09T17:09:41.227Z,21.40
2018-09-09T17:12:09.431Z,21.30
2018-09-09T17:14:38.012Z,21.20
2018-09-09T17:17:06.207Z,21.10
2018-09-09T17:19:34.408Z,20.90
2018-09-09T17:22:02.636Z,20.80
2018-09-09T17:24:30.903Z,20.70
2018-09-09T17:26:59.096Z,20.60
2018-09-09T17:29:27.368Z,20.50
2018-09-09T17:31:55.835Z,20.40
2018-09-09T17:34:24.118Z,20.30
2018-09-09T17:36:52.778Z,20.20
2018-09-09T17:39:21.020Z,20.20
2018-09-09T17:41:49.178Z,20.10
2018-09-09T17:44:17.372Z,20.10
2018-09-09T17:46:45.583Z,20.00
2018-09-09T17:49:13.756Z,19.80
2018-09-09T17:51:42.016Z,19.70
2018-09-09T17:54:10.180Z,19.50
2018-09-09T17:56:38.383Z,19.30
2018-09-09T17:59:06.952Z,19.10
2018-09-09T18:01:35.165Z,18.90
2018-09-09T18:04:03.332Z,18.60
2018-09-09T18:06:31.522Z,18.40
2018-09-09T18:08:59.703Z,18.20
2018-09-09T18:11:27.914Z,18.10
2018-09-09T18:13:56.409Z,18.10
2018-09-09T18:16:24.595Z,18.10
2018-09-09T18:18:52.887Z,18.10
2018-09-09T18:21:21.379Z,18.00
2018-09-09T18:23:49.728Z,17.80
2018-09-09T18:26:18.040Z,17.70
2018-09-09T18:28:46.284Z,17.60
2018-09-09T18:31:14.496Z,17.50
2018-09-09T18:33:42.681Z,17.30
2018-09-09T18:36:10.907Z,17.20
2018-09-09T18:38:39.149Z,17.10
2018-09-09T18:41:07.292Z,17.00
2018-09-09T18:43:35.704Z,17.00
2018-09-09T18:46:04.120Z,16.90
2018-09-09T18:48:32.393Z,16.80
2018-09-09T18:51:00.664Z,16.70
2018-09-09T18:53:28.919Z,16.60
2018-09-09T18:55:57.128Z,16.50
2018-09-09T18:58:25.377Z,16.40
2018-09-09T19:00:53.795Z,16.30
2018-09-09T19:03:22.703Z,16.20
2018-09-09T19:05:58.297Z,16.10
2018-09-09T19:08:26.632Z,15.90
2018-09-09T19:10:54.898Z,15.90
2018-09-09T19:13:23.202Z,16.00
2018-09-09T19:15:51.591Z,16.00
2018-09-09T19:18:19.995Z,15.90
2018-09-09T19:20:48.154Z,15.80
2018-09-09T19:23:16.363Z,15.70
2018-09-09T19:25:44.591Z,15.70
2018-09-09T19:28:12.784Z,15.60
2018-09-09T19:30:41.220Z,15.40
2018-09-09T19:33:09.702Z,15.30
2018-09-09T19:35:38.181Z,15.10
2018-09-09T19:38:06.486Z,15.10
2018-09-09T19:40:34.672Z,15.00
2018-09-09T19:43:02.895Z,15.00
2018-09-09T19:45:31.119Z,14.90
2018-09-09T19:47:59.309Z,14.80
2018-09-09T19:50:27.731Z,14.80
2018-09-09T19:52:55.972Z,14.70
2018-09-09T19:55:24.158Z,14.60
2018-09-09T19:57:52.440Z,14.50
2018-09-09T20:00:20.639Z,14.50
2018-09-09T20:02:48.901Z,14.40
2018-09-09T20:05:17.109Z,14.40
2018-09-09T20:07:46.023Z,14.40
2018-09-09T20:10:14.270Z,14.30
2018-09-09T20:12:42.870Z,14.30
2018-09-09T20:15:11.526Z,14.30
2018-09-09T20:17:40.377Z,14.30
2018-09-09T20:20:09.080Z,14.20
2018-09-09T20:22:37.440Z,14.10
2018-09-09T20:25:05.643Z,14.00
2018-09-09T20:27:33.867Z,13.90
2018-09-09T20:30:02.103Z,13.80
2018-09-09T20:32:30.355Z,13.70
2018-09-09T20:34:58.466Z,13.60
2018-09-09T20:37:26.609Z,13.50
2018-09-09T20:39:54.782Z,13.40
2018-09-09T20:42:23.073Z,13.30
2018-09-09T20:44:51.225Z,13.20
2018-09-09T20:47:19.470Z,13.20
2018-09-09T20:49:47.671Z,13.10
2018-09-09T20:52:15.802Z,13.10
2018-09-09T20:54:43.944Z,13.00
2018-09-09T20:57:13.217Z,13.00
2018-09-09T20:59:41.377Z,12.90
2018-09-09T21:02:09.594Z,12.90
2018-09-09T21:04:37.754Z,12.80
2018-09-09T21:07:06.125Z,12.80
2018-09-09T21:09:34.338Z,12.70
2018-09-09T21:12:02.482Z,12.70
2018-09-09T21:14:30.626Z,12.60
2018-09-09T21:16:58.858Z,12.60
2018-09-09T21:19:27.071Z,12.60
2018-09-09T21:21:55.296Z,12.50
2018-09-09T21:24:23.565Z,12.50
2018-09-09T21:26:51.750Z,12.40
2018-09-09T21:29:19.947Z,12.40
2018-09-09T21:31:48.123Z,12.40
2018-09-09T21:34:16.265Z,12.40
2018-09-09T21:36:44.439Z,12.30
2018-09-09T21:39:12.607Z,12.30
2018-09-09T21:41:41.437Z,12.30
2018-09-09T21:44:09.659Z,12.30
2018-09-09T21:46:37.890Z,12.20
2018-09-09T21:49:06.296Z,12.20
2018-09-09T21:51:34.484Z,12.10
2018-09-09T21:54:02.683Z,12.10
2018-09-09T21:56:30.849Z,12.10
2018-09-09T21:58:59.033Z,12.10
2018-09-09T22:01:32.485Z,12.10
2018-09-09T22:04:00.642Z,12.00
2018-09-09T22:06:28.993Z,12.00
2018-09-09T22:08:58.361Z,12.00
2018-09-09T22:11:26.529Z,11.90
2018-09-09T22:13:55.581Z,11.90
2018-09-09T22:16:24.105Z,11.80
2018-09-09T22:18:52.269Z,11.80
2018-09-09T22:21:20.695Z,11.70
2018-09-09T22:23:48.897Z,11.70
2018-09-09T22:26:17.727Z,11.70
2018-09-09T22:28:46.495Z,11.60
2018-09-09T22:31:14.729Z,11.60
2018-09-09T22:33:42.891Z,11.50
2018-09-09T22:36:11.034Z,11.50
2018-09-09T22:38:39.213Z,11.40
2018-09-09T22:41:07.379Z,11.40
2018-09-09T22:43:35.559Z,11.30
2018-09-09T22:46:03.729Z,11.30
2018-09-09T22:48:31.865Z,11.20
2018-09-09T22:51:00.038Z,11.20
2018-09-09T22:53:28.182Z,11.20
2018-09-09T22:55:56.392Z,11.10
2018-09-09T22:58:24.562Z,11.10
2018-09-09T23:00:52.742Z,11.10
2018-09-09T23:03:20.918Z,11.10
2018-09-09T23:05:49.086Z,11.10
2018-09-09T23:08:17.294Z,11.10
2018-09-09T23:10:45.442Z,11.10
2018-09-09T23:13:13.654Z,11.20
2018-09-09T23:15:41.829Z,11.20
2018-09-09T23:18:09.986Z,11.20
2018-09-09T23:20:38.162Z,11.20
2018-09-09T23:23:06.293Z,11.20
2018-09-09T23:25:34.453Z,11.10
2018-09-09T23:28:02.609Z,11.10
2018-09-09T23:30:30.770Z,11.00
2018-09-09T23:32:58.949Z,11.00
2018-09-09T23:35:30.829Z,11.00
2018-09-09T23:37:58.985Z,10.90
2018-09-09T23:40:27.145Z,10.90
2018-09-09T23:42:55.335Z,10.80
2018-09-09T23:45:23.536Z,10.80
2018-09-09T23:47:51.686Z,10.70
2018-09-09T23:50:19.818Z,10.70
2018-09-09T23:52:48.011Z,10.70
2018-09-09T23:55:16.133Z,10.60
2018-09-09T23:57:44.322Z,10.60
